sensor_id;sensor_type;location;lat;lon;timestamp;P1;durP1;ratioP1;P2;durP2;ratioP2
30818;SDS011;17546;42.674;23.284;2023-11-19T00:00:26;5.72;;;3.55;;
30818;SDS011;17546;42.674;23.284;2023-11-19T00:02:52;4.50;;;2.78;;
30818;SDS011;17546;42.674;23.284;2023-11-19T00:05:18;9.55;;;2.70;;
30818;SDS011;17546;42.674;23.284;2023-11-19T00:07:44;3.58;;;2.42;;
30818;SDS011;17546;42.674;23.284;2023-11-19T00:10:10;4.97;;;2.88;;
30818;SDS011;17546;42.674;23.284;2023-11-19T00:12:43;4.07;;;2.50;;
30818;SDS011;17546;42.674;23.284;2023-11-19T00:15:09;4.63;;;2.50;;
30818;SDS011;17546;42.674;23.284;2023-11-19T00:17:38;3.53;;;2.53;;
30818;SDS011;17546;42.674;23.284;2023-11-19T00:20:11;3.90;;;2.67;;
30818;SDS011;17546;42.674;23.284;2023-11-19T00:22:37;3.60;;;2.63;;
30818;SDS011;17546;42.674;23.284;2023-11-19T00:25:02;4.15;;;2.80;;
30818;SDS011;17546;42.674;23.284;2023-11-19T00:27:29;5.47;;;2.70;;
30818;SDS011;17546;42.674;23.284;2023-11-19T00:29:54;5.13;;;2.78;;
30818;SDS011;17546;42.674;23.284;2023-11-19T00:32:20;5.22;;;3.00;;
30818;SDS011;17546;42.674;23.284;2023-11-19T00:34:45;4.93;;;3.15;;
30818;SDS011;17546;42.674;23.284;2023-11-19T00:37:13;4.95;;;3.22;;
30818;SDS011;17546;42.674;23.284;2023-11-19T00:39:39;7.10;;;2.75;;
30818;SDS011;17546;42.674;23.284;2023-11-19T00:42:04;4.55;;;2.80;;
30818;SDS011;17546;42.674;23.284;2023-11-19T00:44:30;6.05;;;3.28;;
30818;SDS011;17546;42.674;23.284;2023-11-19T00:46:56;4.93;;;3.05;;
30818;SDS011;17546;42.674;23.284;2023-11-19T00:49:21;4.43;;;3.10;;
30818;SDS011;17546;42.674;23.284;2023-11-19T00:51:47;4.90;;;2.55;;
30818;SDS011;17546;42.674;23.284;2023-11-19T00:54:12;6.07;;;2.47;;
30818;SDS011;17546;42.674;23.284;2023-11-19T00:56:37;4.35;;;2.80;;
30818;SDS011;17546;42.674;23.284;2023-11-19T00:59:03;3.30;;;2.40;;
30818;SDS011;17546;42.674;23.284;2023-11-19T01:01:29;6.63;;;2.92;;
30818;SDS011;17546;42.674;23.284;2023-11-19T01:03:55;7.80;;;2.42;;
30818;SDS011;17546;42.674;23.284;2023-11-19T01:06:31;4.07;;;2.88;;
30818;SDS011;17546;42.674;23.284;2023-11-19T01:08:57;4.05;;;2.80;;
30818;SDS011;17546;42.674;23.284;2023-11-19T01:11:23;3.58;;;2.83;;
30818;SDS011;17546;42.674;23.284;2023-11-19T01:13:49;5.30;;;2.47;;
30818;SDS011;17546;42.674;23.284;2023-11-19T01:16:15;4.78;;;2.75;;
30818;SDS011;17546;42.674;23.284;2023-11-19T01:18:41;3.85;;;2.90;;
30818;SDS011;17546;42.674;23.284;2023-11-19T01:21:07;4.22;;;2.83;;
30818;SDS011;17546;42.674;23.284;2023-11-19T01:23:32;3.67;;;2.67;;
30818;SDS011;17546;42.674;23.284;2023-11-19T01:25:58;5.03;;;2.90;;
30818;SDS011;17546;42.674;23.284;2023-11-19T01:28:23;7.38;;;2.53;;
30818;SDS011;17546;42.674;23.284;2023-11-19T01:30:52;3.42;;;2.35;;
30818;SDS011;17546;42.674;23.284;2023-11-19T01:33:17;5.68;;;2.53;;
30818;SDS011;17546;42.674;23.284;2023-11-19T01:35:43;4.70;;;2.60;;
30818;SDS011;17546;42.674;23.284;2023-11-19T01:38:08;3.63;;;2.67;;
30818;SDS011;17546;42.674;23.284;2023-11-19T01:40:34;4.60;;;2.60;;
30818;SDS011;17546;42.674;23.284;2023-11-19T01:43:01;4.50;;;2.70;;
30818;SDS011;17546;42.674;23.284;2023-11-19T01:45:27;4.53;;;2.60;;
30818;SDS011;17546;42.674;23.284;2023-11-19T01:47:55;3.97;;;2.70;;
30818;SDS011;17546;42.674;23.284;2023-11-19T01:50:24;3.78;;;2.40;;
30818;SDS011;17546;42.674;23.284;2023-11-19T01:52:53;3.60;;;2.50;;
30818;SDS011;17546;42.674;23.284;2023-11-19T01:55:22;3.85;;;2.70;;
30818;SDS011;17546;42.674;23.284;2023-11-19T01:57:49;3.97;;;2.72;;
30818;SDS011;17546;42.674;23.284;2023-11-19T02:00:16;5.70;;;2.67;;
30818;SDS011;17546;42.674;23.284;2023-11-19T02:02:44;4.60;;;2.72;;
30818;SDS011;17546;42.674;23.284;2023-11-19T02:05:11;4.72;;;2.67;;
30818;SDS011;17546;42.674;23.284;2023-11-19T02:07:38;3.60;;;2.60;;
30818;SDS011;17546;42.674;23.284;2023-11-19T02:10:04;4.50;;;2.50;;
30818;SDS011;17546;42.674;23.284;2023-11-19T02:12:31;6.80;;;2.92;;
30818;SDS011;17546;42.674;23.284;2023-11-19T02:15:01;6.15;;;2.58;;
30818;SDS011;17546;42.674;23.284;2023-11-19T02:17:28;4.57;;;2.65;;
30818;SDS011;17546;42.674;23.284;2023-11-19T02:19:56;6.63;;;2.42;;
30818;SDS011;17546;42.674;23.284;2023-11-19T02:22:22;2.85;;;2.20;;
30818;SDS011;17546;42.674;23.284;2023-11-19T02:24:48;4.30;;;2.83;;
30818;SDS011;17546;42.674;23.284;2023-11-19T02:27:23;3.58;;;2.30;;
30818;SDS011;17546;42.674;23.284;2023-11-19T02:29:55;3.30;;;2.55;;
30818;SDS011;17546;42.674;23.284;2023-11-19T02:32:22;3.92;;;2.58;;
30818;SDS011;17546;42.674;23.284;2023-11-19T02:34:48;3.53;;;2.47;;
30818;SDS011;17546;42.674;23.284;2023-11-19T02:37:14;3.25;;;2.40;;
30818;SDS011;17546;42.674;23.284;2023-11-19T02:39:40;4.30;;;2.72;;
30818;SDS011;17546;42.674;23.284;2023-11-19T02:42:06;6.35;;;2.55;;
30818;SDS011;17546;42.674;23.284;2023-11-19T02:44:33;4.43;;;2.88;;
30818;SDS011;17546;42.674;23.284;2023-11-19T02:46:59;9.38;;;2.67;;
30818;SDS011;17546;42.674;23.284;2023-11-19T02:49:25;6.40;;;2.80;;
30818;SDS011;17546;42.674;23.284;2023-11-19T02:51:50;7.30;;;2.60;;
30818;SDS011;17546;42.674;23.284;2023-11-19T02:54:16;3.75;;;2.42;;
30818;SDS011;17546;42.674;23.284;2023-11-19T02:56:44;4.70;;;2.92;;
30818;SDS011;17546;42.674;23.284;2023-11-19T02:59:13;3.60;;;2.58;;
30818;SDS011;17546;42.674;23.284;2023-11-19T03:01:52;3.75;;;2.60;;
30818;SDS011;17546;42.674;23.284;2023-11-19T03:04:18;4.40;;;2.55;;
30818;SDS011;17546;42.674;23.284;2023-11-19T03:07:18;4.03;;;2.30;;
30818;SDS011;17546;42.674;23.284;2023-11-19T03:09:43;4.35;;;2.25;;
30818;SDS011;17546;42.674;23.284;2023-11-19T03:12:09;3.78;;;2.38;;
30818;SDS011;17546;42.674;23.284;2023-11-19T03:14:34;5.65;;;2.88;;
30818;SDS011;17546;42.674;23.284;2023-11-19T03:17:00;3.83;;;2.58;;
30818;SDS011;17546;42.674;23.284;2023-11-19T03:19:25;3.03;;;2.55;;
30818;SDS011;17546;42.674;23.284;2023-11-19T03:21:51;5.20;;;2.83;;
30818;SDS011;17546;42.674;23.284;2023-11-19T03:24:17;3.92;;;2.70;;
30818;SDS011;17546;42.674;23.284;2023-11-19T03:26:42;5.07;;;2.85;;
30818;SDS011;17546;42.674;23.284;2023-11-19T03:29:15;4.30;;;2.92;;
30818;SDS011;17546;42.674;23.284;2023-11-19T03:31:43;5.30;;;2.80;;
30818;SDS011;17546;42.674;23.284;2023-11-19T03:34:09;3.58;;;2.53;;
30818;SDS011;17546;42.674;23.284;2023-11-19T03:36:35;4.80;;;2.60;;
30818;SDS011;17546;42.674;23.284;2023-11-19T03:39:01;3.58;;;2.15;;
30818;SDS011;17546;42.674;23.284;2023-11-19T03:41:28;4.65;;;2.90;;
30818;SDS011;17546;42.674;23.284;2023-11-19T03:43:53;4.20;;;2.80;;
30818;SDS011;17546;42.674;23.284;2023-11-19T03:46:19;4.05;;;2.63;;
30818;SDS011;17546;42.674;23.284;2023-11-19T03:48:49;4.38;;;2.45;;
30818;SDS011;17546;42.674;23.284;2023-11-19T03:51:15;3.83;;;2.40;;
30818;SDS011;17546;42.674;23.284;2023-11-19T03:53:44;7.60;;;2.90;;
30818;SDS011;17546;42.674;23.284;2023-11-19T03:56:10;5.35;;;3.00;;
30818;SDS011;17546;42.674;23.284;2023-11-19T03:58:36;5.55;;;2.80;;
30818;SDS011;17546;42.674;23.284;2023-11-19T04:01:03;4.95;;;3.00;;
30818;SDS011;17546;42.674;23.284;2023-11-19T04:03:29;6.15;;;2.95;;
30818;SDS011;17546;42.674;23.284;2023-11-19T04:05:55;4.60;;;2.90;;
30818;SDS011;17546;42.674;23.284;2023-11-19T04:08:21;11.40;;;3.00;;
30818;SDS011;17546;42.674;23.284;2023-11-19T04:10:47;4.85;;;3.28;;
30818;SDS011;17546;42.674;23.284;2023-11-19T04:13:13;5.30;;;3.33;;
30818;SDS011;17546;42.674;23.284;2023-11-19T04:15:38;4.57;;;3.00;;
30818;SDS011;17546;42.674;23.284;2023-11-19T04:18:04;4.97;;;3.05;;
30818;SDS011;17546;42.674;23.284;2023-11-19T04:20:29;8.27;;;4.78;;
30818;SDS011;17546;42.674;23.284;2023-11-19T04:22:56;6.20;;;3.45;;
30818;SDS011;17546;42.674;23.284;2023-11-19T04:25:22;5.85;;;3.13;;
30818;SDS011;17546;42.674;23.284;2023-11-19T04:27:49;5.15;;;3.00;;
30818;SDS011;17546;42.674;23.284;2023-11-19T04:30:15;6.82;;;3.42;;
30818;SDS011;17546;42.674;23.284;2023-11-19T04:32:41;5.57;;;3.10;;
30818;SDS011;17546;42.674;23.284;2023-11-19T04:35:06;4.90;;;2.90;;
30818;SDS011;17546;42.674;23.284;2023-11-19T04:37:32;5.03;;;2.85;;
30818;SDS011;17546;42.674;23.284;2023-11-19T04:39:58;4.20;;;2.47;;
30818;SDS011;17546;42.674;23.284;2023-11-19T04:42:25;4.28;;;2.90;;
30818;SDS011;17546;42.674;23.284;2023-11-19T04:44:50;6.00;;;2.63;;
30818;SDS011;17546;42.674;23.284;2023-11-19T04:47:16;4.70;;;2.75;;
30818;SDS011;17546;42.674;23.284;2023-11-19T04:49:41;4.72;;;2.80;;
30818;SDS011;17546;42.674;23.284;2023-11-19T04:52:10;5.28;;;2.83;;
30818;SDS011;17546;42.674;23.284;2023-11-19T04:54:45;3.95;;;2.60;;
30818;SDS011;17546;42.674;23.284;2023-11-19T04:57:11;5.20;;;3.03;;
30818;SDS011;17546;42.674;23.284;2023-11-19T04:59:37;6.53;;;2.78;;
30818;SDS011;17546;42.674;23.284;2023-11-19T05:02:03;3.70;;;2.63;;
30818;SDS011;17546;42.674;23.284;2023-11-19T05:04:29;4.05;;;2.97;;
30818;SDS011;17546;42.674;23.284;2023-11-19T05:06:55;4.20;;;2.60;;
30818;SDS011;17546;42.674;23.284;2023-11-19T05:09:20;4.15;;;2.75;;
30818;SDS011;17546;42.674;23.284;2023-11-19T05:11:46;6.53;;;3.22;;
30818;SDS011;17546;42.674;23.284;2023-11-19T05:14:11;7.03;;;2.80;;
30818;SDS011;17546;42.674;23.284;2023-11-19T05:16:39;4.15;;;2.72;;
30818;SDS011;17546;42.674;23.284;2023-11-19T05:19:05;4.15;;;2.63;;
30818;SDS011;17546;42.674;23.284;2023-11-19T05:21:30;3.75;;;2.58;;
30818;SDS011;17546;42.674;23.284;2023-11-19T05:23:56;3.67;;;2.58;;
30818;SDS011;17546;42.674;23.284;2023-11-19T05:26:22;4.45;;;2.67;;
30818;SDS011;17546;42.674;23.284;2023-11-19T05:28:49;4.20;;;2.78;;
30818;SDS011;17546;42.674;23.284;2023-11-19T05:31:15;4.43;;;2.90;;
30818;SDS011;17546;42.674;23.284;2023-11-19T05:33:42;5.38;;;2.80;;
30818;SDS011;17546;42.674;23.284;2023-11-19T05:36:07;3.53;;;2.60;;
30818;SDS011;17546;42.674;23.284;2023-11-19T05:38:33;9.05;;;2.90;;
30818;SDS011;17546;42.674;23.284;2023-11-19T05:41:00;3.97;;;2.65;;
30818;SDS011;17546;42.674;23.284;2023-11-19T05:43:25;4.25;;;2.67;;
30818;SDS011;17546;42.674;23.284;2023-11-19T05:45:51;5.60;;;2.75;;
30818;SDS011;17546;42.674;23.284;2023-11-19T05:48:16;3.70;;;2.72;;
30818;SDS011;17546;42.674;23.284;2023-11-19T05:50:42;4.82;;;3.28;;
30818;SDS011;17546;42.674;23.284;2023-11-19T05:53:07;5.78;;;3.03;;
30818;SDS011;17546;42.674;23.284;2023-11-19T05:55:38;4.82;;;3.10;;
30818;SDS011;17546;42.674;23.284;2023-11-19T05:58:25;4.18;;;2.95;;
30818;SDS011;17546;42.674;23.284;2023-11-19T06:00:51;5.10;;;3.10;;
30818;SDS011;17546;42.674;23.284;2023-11-19T06:03:18;5.70;;;3.05;;
30818;SDS011;17546;42.674;23.284;2023-11-19T06:05:46;4.43;;;2.72;;
30818;SDS011;17546;42.674;23.284;2023-11-19T06:08:12;5.00;;;2.97;;
30818;SDS011;17546;42.674;23.284;2023-11-19T06:10:38;7.03;;;4.00;;
30818;SDS011;17546;42.674;23.284;2023-11-19T06:13:05;6.65;;;3.85;;
30818;SDS011;17546;42.674;23.284;2023-11-19T06:15:31;5.88;;;3.60;;
30818;SDS011;17546;42.674;23.284;2023-11-19T06:17:58;5.63;;;3.30;;
30818;SDS011;17546;42.674;23.284;2023-11-19T06:20:26;5.38;;;3.58;;
30818;SDS011;17546;42.674;23.284;2023-11-19T06:22:54;6.10;;;3.30;;
30818;SDS011;17546;42.674;23.284;2023-11-19T06:25:20;8.57;;;3.78;;
30818;SDS011;17546;42.674;23.284;2023-11-19T06:27:45;8.45;;;3.95;;
30818;SDS011;17546;42.674;23.284;2023-11-19T06:30:11;8.68;;;3.47;;
30818;SDS011;17546;42.674;23.284;2023-11-19T06:32:37;5.82;;;3.38;;
30818;SDS011;17546;42.674;23.284;2023-11-19T06:35:02;5.75;;;3.72;;
30818;SDS011;17546;42.674;23.284;2023-11-19T06:37:29;8.13;;;3.45;;
30818;SDS011;17546;42.674;23.284;2023-11-19T06:39:55;5.20;;;3.08;;
30818;SDS011;17546;42.674;23.284;2023-11-19T06:42:21;6.20;;;3.53;;
30818;SDS011;17546;42.674;23.284;2023-11-19T06:44:46;5.90;;;2.92;;
30818;SDS011;17546;42.674;23.284;2023-11-19T06:47:11;6.50;;;3.58;;
30818;SDS011;17546;42.674;23.284;2023-11-19T06:49:37;6.15;;;3.15;;
30818;SDS011;17546;42.674;23.284;2023-11-19T06:52:02;5.03;;;3.13;;
30818;SDS011;17546;42.674;23.284;2023-11-19T06:54:29;5.43;;;2.70;;
30818;SDS011;17546;42.674;23.284;2023-11-19T06:56:55;5.80;;;3.15;;
30818;SDS011;17546;42.674;23.284;2023-11-19T06:59:22;5.75;;;3.45;;
30818;SDS011;17546;42.674;23.284;2023-11-19T07:01:48;6.90;;;3.85;;
30818;SDS011;17546;42.674;23.284;2023-11-19T07:04:13;5.35;;;3.10;;
30818;SDS011;17546;42.674;23.284;2023-11-19T07:06:38;5.18;;;3.58;;
30818;SDS011;17546;42.674;23.284;2023-11-19T07:09:06;6.97;;;4.00;;
30818;SDS011;17546;42.674;23.284;2023-11-19T07:11:35;7.60;;;3.83;;
30818;SDS011;17546;42.674;23.284;2023-11-19T07:14:02;6.75;;;4.05;;
30818;SDS011;17546;42.674;23.284;2023-11-19T07:16:28;6.10;;;4.05;;
30818;SDS011;17546;42.674;23.284;2023-11-19T07:18:53;8.20;;;3.72;;
30818;SDS011;17546;42.674;23.284;2023-11-19T07:21:19;8.95;;;4.00;;
30818;SDS011;17546;42.674;23.284;2023-11-19T07:23:45;6.22;;;3.83;;
30818;SDS011;17546;42.674;23.284;2023-11-19T07:26:11;9.50;;;5.60;;
30818;SDS011;17546;42.674;23.284;2023-11-19T07:28:38;6.50;;;3.97;;
30818;SDS011;17546;42.674;23.284;2023-11-19T07:31:05;12.30;;;4.70;;
30818;SDS011;17546;42.674;23.284;2023-11-19T07:33:33;6.25;;;3.67;;
30818;SDS011;17546;42.674;23.284;2023-11-19T07:35:58;5.88;;;3.38;;
30818;SDS011;17546;42.674;23.284;2023-11-19T07:38:24;6.95;;;3.78;;
30818;SDS011;17546;42.674;23.284;2023-11-19T07:40:49;5.10;;;3.70;;
30818;SDS011;17546;42.674;23.284;2023-11-19T07:43:15;6.30;;;3.80;;
30818;SDS011;17546;42.674;23.284;2023-11-19T07:45:41;5.25;;;3.30;;
30818;SDS011;17546;42.674;23.284;2023-11-19T07:48:10;6.97;;;3.70;;
30818;SDS011;17546;42.674;23.284;2023-11-19T07:50:39;5.40;;;3.83;;
30818;SDS011;17546;42.674;23.284;2023-11-19T07:53:07;5.57;;;3.85;;
30818;SDS011;17546;42.674;23.284;2023-11-19T07:55:33;8.85;;;3.90;;
30818;SDS011;17546;42.674;23.284;2023-11-19T07:57:59;5.30;;;3.50;;
30818;SDS011;17546;42.674;23.284;2023-11-19T08:00:25;6.18;;;3.63;;
30818;SDS011;17546;42.674;23.284;2023-11-19T08:02:50;7.18;;;4.25;;
30818;SDS011;17546;42.674;23.284;2023-11-19T08:05:15;7.50;;;4.40;;
30818;SDS011;17546;42.674;23.284;2023-11-19T08:07:41;8.70;;;4.45;;
30818;SDS011;17546;42.674;23.284;2023-11-19T08:10:06;10.82;;;4.90;;
30818;SDS011;17546;42.674;23.284;2023-11-19T08:12:35;7.30;;;3.67;;
30818;SDS011;17546;42.674;23.284;2023-11-19T08:15:01;5.47;;;3.78;;
30818;SDS011;17546;42.674;23.284;2023-11-19T08:17:27;7.72;;;4.20;;
30818;SDS011;17546;42.674;23.284;2023-11-19T08:19:54;6.53;;;3.97;;
30818;SDS011;17546;42.674;23.284;2023-11-19T08:22:20;6.43;;;4.07;;
30818;SDS011;17546;42.674;23.284;2023-11-19T08:24:45;13.48;;;4.25;;
30818;SDS011;17546;42.674;23.284;2023-11-19T08:27:10;6.88;;;4.53;;
30818;SDS011;17546;42.674;23.284;2023-11-19T08:29:36;11.70;;;5.13;;
30818;SDS011;17546;42.674;23.284;2023-11-19T08:32:02;13.18;;;4.85;;
30818;SDS011;17546;42.674;23.284;2023-11-19T08:34:28;9.65;;;5.38;;
30818;SDS011;17546;42.674;23.284;2023-11-19T08:36:54;9.98;;;5.63;;
30818;SDS011;17546;42.674;23.284;2023-11-19T08:39:20;11.27;;;3.92;;
30818;SDS011;17546;42.674;23.284;2023-11-19T08:41:47;7.53;;;4.50;;
30818;SDS011;17546;42.674;23.284;2023-11-19T08:44:13;7.50;;;4.20;;
30818;SDS011;17546;42.674;23.284;2023-11-19T08:46:39;6.28;;;3.72;;
30818;SDS011;17546;42.674;23.284;2023-11-19T08:49:10;6.45;;;3.40;;
30818;SDS011;17546;42.674;23.284;2023-11-19T08:51:36;5.88;;;3.72;;
30818;SDS011;17546;42.674;23.284;2023-11-19T08:54:01;6.18;;;3.72;;
30818;SDS011;17546;42.674;23.284;2023-11-19T08:56:27;5.47;;;3.58;;
30818;SDS011;17546;42.674;23.284;2023-11-19T08:58:57;5.13;;;3.60;;
30818;SDS011;17546;42.674;23.284;2023-11-19T09:01:22;6.93;;;3.60;;
30818;SDS011;17546;42.674;23.284;2023-11-19T09:03:47;5.22;;;3.65;;
30818;SDS011;17546;42.674;23.284;2023-11-19T09:06:13;5.50;;;3.67;;
30818;SDS011;17546;42.674;23.284;2023-11-19T09:08:38;5.07;;;3.45;;
30818;SDS011;17546;42.674;23.284;2023-11-19T09:11:06;6.28;;;3.60;;
30818;SDS011;17546;42.674;23.284;2023-11-19T09:13:32;7.65;;;4.90;;
30818;SDS011;17546;42.674;23.284;2023-11-19T09:15:58;8.57;;;4.07;;
30818;SDS011;17546;42.674;23.284;2023-11-19T09:18:28;7.18;;;4.20;;
30818;SDS011;17546;42.674;23.284;2023-11-19T09:20:54;7.03;;;3.80;;
30818;SDS011;17546;42.674;23.284;2023-11-19T09:23:19;6.50;;;4.38;;
30818;SDS011;17546;42.674;23.284;2023-11-19T09:25:45;5.63;;;3.60;;
30818;SDS011;17546;42.674;23.284;2023-11-19T09:28:10;6.35;;;3.80;;
30818;SDS011;17546;42.674;23.284;2023-11-19T09:30:36;6.35;;;3.80;;
30818;SDS011;17546;42.674;23.284;2023-11-19T09:33:05;6.63;;;4.32;;
30818;SDS011;17546;42.674;23.284;2023-11-19T09:35:31;6.20;;;3.78;;
30818;SDS011;17546;42.674;23.284;2023-11-19T09:37:56;7.65;;;3.38;;
30818;SDS011;17546;42.674;23.284;2023-11-19T09:40:22;6.45;;;3.85;;
30818;SDS011;17546;42.674;23.284;2023-11-19T09:42:47;6.75;;;3.80;;
30818;SDS011;17546;42.674;23.284;2023-11-19T09:45:14;5.93;;;4.13;;
30818;SDS011;17546;42.674;23.284;2023-11-19T09:47:44;8.05;;;4.38;;
30818;SDS011;17546;42.674;23.284;2023-11-19T09:50:17;7.55;;;3.95;;
30818;SDS011;17546;42.674;23.284;2023-11-19T09:52:44;6.72;;;4.10;;
30818;SDS011;17546;42.674;23.284;2023-11-19T09:55:10;6.00;;;3.75;;
30818;SDS011;17546;42.674;23.284;2023-11-19T09:57:37;6.32;;;3.80;;
30818;SDS011;17546;42.674;23.284;2023-11-19T10:00:05;9.27;;;4.70;;
30818;SDS011;17546;42.674;23.284;2023-11-19T10:02:33;6.53;;;4.10;;
30818;SDS011;17546;42.674;23.284;2023-11-19T10:05:02;6.38;;;4.07;;
30818;SDS011;17546;42.674;23.284;2023-11-19T10:07:31;6.35;;;3.70;;
30818;SDS011;17546;42.674;23.284;2023-11-19T10:10:03;14.35;;;5.43;;
30818;SDS011;17546;42.674;23.284;2023-11-19T10:12:29;6.82;;;4.07;;
30818;SDS011;17546;42.674;23.284;2023-11-19T10:14:56;5.80;;;3.65;;
30818;SDS011;17546;42.674;23.284;2023-11-19T10:17:41;7.63;;;3.63;;
30818;SDS011;17546;42.674;23.284;2023-11-19T10:20:07;7.63;;;3.95;;
30818;SDS011;17546;42.674;23.284;2023-11-19T10:22:38;6.55;;;4.05;;
30818;SDS011;17546;42.674;23.284;2023-11-19T10:25:05;5.28;;;3.53;;
30818;SDS011;17546;42.674;23.284;2023-11-19T10:27:47;5.25;;;3.33;;
30818;SDS011;17546;42.674;23.284;2023-11-19T10:30:12;5.70;;;3.30;;
30818;SDS011;17546;42.674;23.284;2023-11-19T10:32:38;4.90;;;2.90;;
30818;SDS011;17546;42.674;23.284;2023-11-19T10:35:06;5.50;;;3.35;;
30818;SDS011;17546;42.674;23.284;2023-11-19T10:37:32;8.07;;;2.97;;
30818;SDS011;17546;42.674;23.284;2023-11-19T10:40:00;9.65;;;3.70;;
30818;SDS011;17546;42.674;23.284;2023-11-19T10:42:25;5.25;;;3.33;;
30818;SDS011;17546;42.674;23.284;2023-11-19T10:44:51;5.93;;;3.65;;
30818;SDS011;17546;42.674;23.284;2023-11-19T10:47:18;6.28;;;3.80;;
30818;SDS011;17546;42.674;23.284;2023-11-19T10:49:44;5.35;;;3.50;;
30818;SDS011;17546;42.674;23.284;2023-11-19T10:52:14;8.35;;;3.50;;
30818;SDS011;17546;42.674;23.284;2023-11-19T10:54:50;12.90;;;3.55;;
30818;SDS011;17546;42.674;23.284;2023-11-19T10:57:21;6.78;;;3.30;;
30818;SDS011;17546;42.674;23.284;2023-11-19T10:59:55;4.47;;;3.28;;
30818;SDS011;17546;42.674;23.284;2023-11-19T11:02:26;7.00;;;3.42;;
30818;SDS011;17546;42.674;23.284;2023-11-19T11:04:54;7.07;;;3.65;;
30818;SDS011;17546;42.674;23.284;2023-11-19T11:07:21;6.20;;;3.20;;
30818;SDS011;17546;42.674;23.284;2023-11-19T11:09:51;4.85;;;3.00;;
30818;SDS011;17546;42.674;23.284;2023-11-19T11:12:19;5.60;;;3.33;;
30818;SDS011;17546;42.674;23.284;2023-11-19T11:14:48;4.57;;;3.03;;
30818;SDS011;17546;42.674;23.284;2023-11-19T11:17:16;6.95;;;3.22;;
30818;SDS011;17546;42.674;23.284;2023-11-19T11:19:43;5.32;;;2.67;;
30818;SDS011;17546;42.674;23.284;2023-11-19T11:22:09;4.32;;;2.72;;
30818;SDS011;17546;42.674;23.284;2023-11-19T11:24:40;13.23;;;3.28;;
30818;SDS011;17546;42.674;23.284;2023-11-19T11:36:07;5.68;;;3.05;;
30818;SDS011;17546;42.674;23.284;2023-11-19T11:38:39;12.70;;;2.90;;
30818;SDS011;17546;42.674;23.284;2023-11-19T11:41:27;7.45;;;3.05;;
30818;SDS011;17546;42.674;23.284;2023-11-19T11:43:53;4.68;;;3.33;;
30818;SDS011;17546;42.674;23.284;2023-11-19T11:48:59;5.65;;;2.92;;
30818;SDS011;17546;42.674;23.284;2023-11-19T11:54:08;5.40;;;3.50;;
30818;SDS011;17546;42.674;23.284;2023-11-19T11:56:33;8.38;;;3.35;;
30818;SDS011;17546;42.674;23.284;2023-11-19T11:59:02;4.55;;;2.95;;
30818;SDS011;17546;42.674;23.284;2023-11-19T12:01:28;8.80;;;4.22;;
30818;SDS011;17546;42.674;23.284;2023-11-19T12:03:55;5.65;;;3.10;;
30818;SDS011;17546;42.674;23.284;2023-11-19T12:06:22;4.47;;;2.75;;
30818;SDS011;17546;42.674;23.284;2023-11-19T12:08:47;8.40;;;3.10;;
30818;SDS011;17546;42.674;23.284;2023-11-19T12:11:13;7.93;;;3.00;;
30818;SDS011;17546;42.674;23.284;2023-11-19T12:16:27;5.25;;;2.80;;
30818;SDS011;17546;42.674;23.284;2023-11-19T12:18:54;7.47;;;3.70;;
30818;SDS011;17546;42.674;23.284;2023-11-19T12:21:27;5.05;;;3.10;;
30818;SDS011;17546;42.674;23.284;2023-11-19T12:23:57;4.53;;;2.92;;
30818;SDS011;17546;42.674;23.284;2023-11-19T12:26:32;6.13;;;2.92;;
30818;SDS011;17546;42.674;23.284;2023-11-19T12:28:59;4.80;;;2.50;;
30818;SDS011;17546;42.674;23.284;2023-11-19T12:31:25;4.90;;;2.50;;
30818;SDS011;17546;42.674;23.284;2023-11-19T12:33:51;4.70;;;3.00;;
30818;SDS011;17546;42.674;23.284;2023-11-19T12:36:18;5.68;;;2.88;;
30818;SDS011;17546;42.674;23.284;2023-11-19T12:38:44;4.88;;;2.95;;
30818;SDS011;17546;42.674;23.284;2023-11-19T12:41:11;5.97;;;3.42;;
30818;SDS011;17546;42.674;23.284;2023-11-19T12:43:37;5.28;;;3.30;;
30818;SDS011;17546;42.674;23.284;2023-11-19T12:46:24;7.15;;;3.70;;
30818;SDS011;17546;42.674;23.284;2023-11-19T12:48:50;6.25;;;3.63;;
30818;SDS011;17546;42.674;23.284;2023-11-19T12:51:18;6.60;;;3.70;;
30818;SDS011;17546;42.674;23.284;2023-11-19T12:53:50;9.90;;;4.72;;
30818;SDS011;17546;42.674;23.284;2023-11-19T12:56:19;8.43;;;4.65;;
30818;SDS011;17546;42.674;23.284;2023-11-19T12:58:47;6.15;;;3.65;;
30818;SDS011;17546;42.674;23.284;2023-11-19T13:01:18;8.48;;;4.65;;
30818;SDS011;17546;42.674;23.284;2023-11-19T13:03:44;9.90;;;5.57;;
30818;SDS011;17546;42.674;23.284;2023-11-19T13:06:12;10.90;;;6.35;;
30818;SDS011;17546;42.674;23.284;2023-11-19T13:08:41;11.93;;;6.28;;
30818;SDS011;17546;42.674;23.284;2023-11-19T13:11:09;12.43;;;6.70;;
30818;SDS011;17546;42.674;23.284;2023-11-19T13:13:54;16.13;;;5.85;;
30818;SDS011;17546;42.674;23.284;2023-11-19T13:18:47;8.95;;;4.85;;
30818;SDS011;17546;42.674;23.284;2023-11-19T13:21:12;9.07;;;5.32;;
30818;SDS011;17546;42.674;23.284;2023-11-19T13:23:38;6.93;;;3.95;;
30818;SDS011;17546;42.674;23.284;2023-11-19T13:26:04;4.95;;;3.05;;
30818;SDS011;17546;42.674;23.284;2023-11-19T13:28:29;5.57;;;2.72;;
30818;SDS011;17546;42.674;23.284;2023-11-19T13:30:55;3.90;;;2.85;;
30818;SDS011;17546;42.674;23.284;2023-11-19T13:33:27;5.22;;;2.70;;
30818;SDS011;17546;42.674;23.284;2023-11-19T13:35:54;6.47;;;2.60;;
30818;SDS011;17546;42.674;23.284;2023-11-19T13:38:20;4.05;;;2.40;;
30818;SDS011;17546;42.674;23.284;2023-11-19T13:40:45;4.55;;;2.60;;
30818;SDS011;17546;42.674;23.284;2023-11-19T13:43:11;2.97;;;2.20;;
30818;SDS011;17546;42.674;23.284;2023-11-19T13:45:36;4.93;;;2.90;;
30818;SDS011;17546;42.674;23.284;2023-11-19T13:48:02;4.63;;;2.60;;
30818;SDS011;17546;42.674;23.284;2023-11-19T13:50:28;3.67;;;2.40;;
30818;SDS011;17546;42.674;23.284;2023-11-19T13:52:54;7.10;;;2.63;;
30818;SDS011;17546;42.674;23.284;2023-11-19T13:55:20;4.05;;;2.30;;
30818;SDS011;17546;42.674;23.284;2023-11-19T13:57:45;3.15;;;2.20;;
30818;SDS011;17546;42.674;23.284;2023-11-19T14:00:12;4.32;;;2.55;;
30818;SDS011;17546;42.674;23.284;2023-11-19T14:02:44;6.40;;;3.13;;
30818;SDS011;17546;42.674;23.284;2023-11-19T14:05:25;5.50;;;2.65;;
30818;SDS011;17546;42.674;23.284;2023-11-19T14:07:51;6.97;;;2.83;;
30818;SDS011;17546;42.674;23.284;2023-11-19T14:10:17;5.70;;;3.15;;
30818;SDS011;17546;42.674;23.284;2023-11-19T14:12:42;5.80;;;3.20;;
30818;SDS011;17546;42.674;23.284;2023-11-19T14:15:09;5.90;;;3.22;;
30818;SDS011;17546;42.674;23.284;2023-11-19T14:17:37;5.35;;;2.67;;
30818;SDS011;17546;42.674;23.284;2023-11-19T14:20:03;5.15;;;2.70;;
30818;SDS011;17546;42.674;23.284;2023-11-19T14:22:46;8.43;;;2.83;;
30818;SDS011;17546;42.674;23.284;2023-11-19T14:25:15;4.72;;;3.03;;
30818;SDS011;17546;42.674;23.284;2023-11-19T14:27:42;5.10;;;2.90;;
30818;SDS011;17546;42.674;23.284;2023-11-19T14:30:09;7.97;;;3.35;;
30818;SDS011;17546;42.674;23.284;2023-11-19T14:32:36;5.53;;;3.08;;
30818;SDS011;17546;42.674;23.284;2023-11-19T14:35:03;11.18;;;3.88;;
30818;SDS011;17546;42.674;23.284;2023-11-19T14:37:32;6.85;;;4.03;;
30818;SDS011;17546;42.674;23.284;2023-11-19T14:39:58;5.88;;;3.80;;
30818;SDS011;17546;42.674;23.284;2023-11-19T14:42:24;10.80;;;5.18;;
30818;SDS011;17546;42.674;23.284;2023-11-19T14:44:52;12.82;;;6.30;;
30818;SDS011;17546;42.674;23.284;2023-11-19T14:47:25;18.20;;;9.00;;
30818;SDS011;17546;42.674;23.284;2023-11-19T14:49:51;25.73;;;10.23;;
30818;SDS011;17546;42.674;23.284;2023-11-19T14:52:16;19.63;;;9.25;;